Glandwr, United Kingdom
Current Conditions -  °F | °C
As of 11:50 PM on Sunday 25 Jan 2015 (Local Time) from EGOP Reporting Station
Overcast Overcast  
Wind Chill: 41°   Ceiling: 300
Heat Index: 48°   Visibility: 1mi
Dew Point: 48°   Wind: 20mph
Humidity: 100%   Direction: 240°WSW
Pressure: 30.24"   Gusts: NA
Location:  51.93°N, 4.63°W
Report Text: EGOP 252350Z AUTO 24017KT 1600 // OVC003/// 09/09 Q1024
Loading
Personal Weather Stations






























Interactive Weather Map New forecast layout! Learn more

10-Day Weather Forecast

Advertisements
Track Severe Weather on mobile